sensor_id;sensor_type;location;lat;lon;timestamp;temperature;humidity
7447;DHT22;3765;47.962;7.952;2023-05-29T00:02:22;14.00;54.90
7447;DHT22;3765;47.962;7.952;2023-05-29T00:04:50;14.00;54.90
7447;DHT22;3765;47.962;7.952;2023-05-29T00:07:20;14.00;54.90
7447;DHT22;3765;47.962;7.952;2023-05-29T00:09:48;14.10;55.00
7447;DHT22;3765;47.962;7.952;2023-05-29T00:12:16;14.10;55.00
7447;DHT22;3765;47.962;7.952;2023-05-29T00:14:45;14.10;55.00
7447;DHT22;3765;47.962;7.952;2023-05-29T00:17:13;14.00;54.90
7447;DHT22;3765;47.962;7.952;2023-05-29T00:19:42;14.00;55.00
7447;DHT22;3765;47.962;7.952;2023-05-29T00:22:11;13.90;55.30
7447;DHT22;3765;47.962;7.952;2023-05-29T00:24:40;13.90;55.50
7447;DHT22;3765;47.962;7.952;2023-05-29T00:27:09;13.80;55.70
7447;DHT22;3765;47.962;7.952;2023-05-29T00:29:37;13.70;55.80
7447;DHT22;3765;47.962;7.952;2023-05-29T00:32:31;13.70;56.00
7447;DHT22;3765;47.962;7.952;2023-05-29T00:34:59;13.50;56.40
7447;DHT22;3765;47.962;7.952;2023-05-29T00:37:27;13.50;56.60
7447;DHT22;3765;47.962;7.952;2023-05-29T00:39:57;13.40;56.90
7447;DHT22;3765;47.962;7.952;2023-05-29T00:42:25;13.30;57.10
7447;DHT22;3765;47.962;7.952;2023-05-29T00:44:54;13.20;57.30
7447;DHT22;3765;47.962;7.952;2023-05-29T00:47:22;13.10;57.50
7447;DHT22;3765;47.962;7.952;2023-05-29T00:49:50;13.10;57.80
7447;DHT22;3765;47.962;7.952;2023-05-29T00:52:20;13.10;57.90
7447;DHT22;3765;47.962;7.952;2023-05-29T00:54:48;12.90;58.00
7447;DHT22;3765;47.962;7.952;2023-05-29T00:57:18;12.80;58.30
7447;DHT22;3765;47.962;7.952;2023-05-29T00:59:47;12.80;58.50
7447;DHT22;3765;47.962;7.952;2023-05-29T01:02:16;12.70;58.70
7447;DHT22;3765;47.962;7.952;2023-05-29T01:04:45;12.60;59.00
7447;DHT22;3765;47.962;7.952;2023-05-29T01:07:14;12.60;59.10
7447;DHT22;3765;47.962;7.952;2023-05-29T01:09:42;12.60;59.20
7447;DHT22;3765;47.962;7.952;2023-05-29T01:12:29;12.70;59.20
7447;DHT22;3765;47.962;7.952;2023-05-29T01:15:14;12.70;59.30
7447;DHT22;3765;47.962;7.952;2023-05-29T01:17:55;12.60;59.40
7447;DHT22;3765;47.962;7.952;2023-05-29T01:20:30;12.70;59.40
7447;DHT22;3765;47.962;7.952;2023-05-29T01:23:08;12.70;59.50
7447;DHT22;3765;47.962;7.952;2023-05-29T01:25:51;12.60;59.40
7447;DHT22;3765;47.962;7.952;2023-05-29T01:28:27;12.50;59.60
7447;DHT22;3765;47.962;7.952;2023-05-29T01:30:58;12.50;59.80
7447;DHT22;3765;47.962;7.952;2023-05-29T01:33:28;12.50;59.90
7447;DHT22;3765;47.962;7.952;2023-05-29T01:35:56;12.40;60.00
7447;DHT22;3765;47.962;7.952;2023-05-29T01:38:28;12.40;60.20
7447;DHT22;3765;47.962;7.952;2023-05-29T01:40:56;12.40;60.20
7447;DHT22;3765;47.962;7.952;2023-05-29T01:43:26;12.40;60.20
7447;DHT22;3765;47.962;7.952;2023-05-29T01:45:55;12.30;60.40
7447;DHT22;3765;47.962;7.952;2023-05-29T01:48:25;12.30;60.60
7447;DHT22;3765;47.962;7.952;2023-05-29T01:50:54;12.30;60.70
7447;DHT22;3765;47.962;7.952;2023-05-29T01:53:22;12.30;60.80
7447;DHT22;3765;47.962;7.952;2023-05-29T01:55:51;12.30;60.90
7447;DHT22;3765;47.962;7.952;2023-05-29T01:58:20;12.30;60.80
7447;DHT22;3765;47.962;7.952;2023-05-29T02:00:51;12.30;60.90
7447;DHT22;3765;47.962;7.952;2023-05-29T02:03:19;12.30;60.90
7447;DHT22;3765;47.962;7.952;2023-05-29T02:05:47;12.40;60.90
7447;DHT22;3765;47.962;7.952;2023-05-29T02:08:16;12.50;60.90
7447;DHT22;3765;47.962;7.952;2023-05-29T02:10:44;12.40;60.90
7447;DHT22;3765;47.962;7.952;2023-05-29T02:13:12;12.50;61.00
7447;DHT22;3765;47.962;7.952;2023-05-29T02:15:40;12.50;60.90
7447;DHT22;3765;47.962;7.952;2023-05-29T02:18:12;12.40;61.00
7447;DHT22;3765;47.962;7.952;2023-05-29T02:20:41;12.30;61.10
7447;DHT22;3765;47.962;7.952;2023-05-29T02:23:09;12.30;61.30
7447;DHT22;3765;47.962;7.952;2023-05-29T02:25:38;12.30;61.40
7447;DHT22;3765;47.962;7.952;2023-05-29T02:28:07;12.30;61.40
7447;DHT22;3765;47.962;7.952;2023-05-29T02:30:35;12.20;61.50
7447;DHT22;3765;47.962;7.952;2023-05-29T02:33:04;12.30;61.70
7447;DHT22;3765;47.962;7.952;2023-05-29T02:35:34;12.10;61.70
7447;DHT22;3765;47.962;7.952;2023-05-29T02:38:03;12.10;61.80
7447;DHT22;3765;47.962;7.952;2023-05-29T02:40:31;12.10;61.80
7447;DHT22;3765;47.962;7.952;2023-05-29T02:42:59;12.10;61.90
7447;DHT22;3765;47.962;7.952;2023-05-29T02:45:27;12.10;62.10
7447;DHT22;3765;47.962;7.952;2023-05-29T02:47:55;12.10;62.20
7447;DHT22;3765;47.962;7.952;2023-05-29T02:50:24;12.10;62.30
7447;DHT22;3765;47.962;7.952;2023-05-29T02:52:53;12.00;62.40
7447;DHT22;3765;47.962;7.952;2023-05-29T02:55:22;11.90;62.50
7447;DHT22;3765;47.962;7.952;2023-05-29T02:57:50;11.90;62.60
7447;DHT22;3765;47.962;7.952;2023-05-29T03:00:21;11.80;62.70
7447;DHT22;3765;47.962;7.952;2023-05-29T03:02:50;11.70;62.80
7447;DHT22;3765;47.962;7.952;2023-05-29T03:05:18;11.60;63.00
7447;DHT22;3765;47.962;7.952;2023-05-29T03:07:46;11.50;63.10
7447;DHT22;3765;47.962;7.952;2023-05-29T03:10:16;11.50;63.20
7447;DHT22;3765;47.962;7.952;2023-05-29T03:12:45;11.50;63.30
7447;DHT22;3765;47.962;7.952;2023-05-29T03:15:14;11.60;63.30
7447;DHT22;3765;47.962;7.952;2023-05-29T03:17:42;11.60;63.10
7447;DHT22;3765;47.962;7.952;2023-05-29T03:20:11;11.60;63.10
7447;DHT22;3765;47.962;7.952;2023-05-29T03:22:40;11.60;63.10
7447;DHT22;3765;47.962;7.952;2023-05-29T03:25:09;11.70;63.10
7447;DHT22;3765;47.962;7.952;2023-05-29T03:27:38;11.70;63.00
7447;DHT22;3765;47.962;7.952;2023-05-29T03:30:08;11.70;63.00
7447;DHT22;3765;47.962;7.952;2023-05-29T03:32:37;11.60;63.00
7447;DHT22;3765;47.962;7.952;2023-05-29T03:35:06;11.60;63.10
7447;DHT22;3765;47.962;7.952;2023-05-29T03:37:34;11.60;63.10
7447;DHT22;3765;47.962;7.952;2023-05-29T03:40:03;11.60;63.10
7447;DHT22;3765;47.962;7.952;2023-05-29T03:42:32;11.60;63.20
7447;DHT22;3765;47.962;7.952;2023-05-29T03:45:01;11.70;63.20
7447;DHT22;3765;47.962;7.952;2023-05-29T03:47:30;11.70;63.00
7447;DHT22;3765;47.962;7.952;2023-05-29T03:49:58;11.80;63.00
7447;DHT22;3765;47.962;7.952;2023-05-29T03:52:26;11.80;63.00
7447;DHT22;3765;47.962;7.952;2023-05-29T03:54:54;11.80;63.00
7447;DHT22;3765;47.962;7.952;2023-05-29T03:57:22;11.70;63.10
7447;DHT22;3765;47.962;7.952;2023-05-29T03:59:50;11.80;63.10
7447;DHT22;3765;47.962;7.952;2023-05-29T04:02:20;11.80;63.00
7447;DHT22;3765;47.962;7.952;2023-05-29T04:04:48;11.80;63.10
7447;DHT22;3765;47.962;7.952;2023-05-29T04:07:17;11.80;62.90
7447;DHT22;3765;47.962;7.952;2023-05-29T04:09:47;11.80;62.90
7447;DHT22;3765;47.962;7.952;2023-05-29T04:12:15;11.90;63.00
7447;DHT22;3765;47.962;7.952;2023-05-29T04:14:43;11.90;62.90
7447;DHT22;3765;47.962;7.952;2023-05-29T04:17:11;12.00;62.90
7447;DHT22;3765;47.962;7.952;2023-05-29T04:19:41;12.00;62.90
7447;DHT22;3765;47.962;7.952;2023-05-29T04:22:09;12.00;63.00
7447;DHT22;3765;47.962;7.952;2023-05-29T04:24:38;12.20;62.90
7447;DHT22;3765;47.962;7.952;2023-05-29T04:27:06;12.30;62.80
7447;DHT22;3765;47.962;7.952;2023-05-29T04:29:35;12.50;62.60
7447;DHT22;3765;47.962;7.952;2023-05-29T04:32:07;12.70;62.10
7447;DHT22;3765;47.962;7.952;2023-05-29T04:34:37;12.80;62.00
7447;DHT22;3765;47.962;7.952;2023-05-29T04:37:08;12.80;61.80
7447;DHT22;3765;47.962;7.952;2023-05-29T04:39:36;12.80;61.70
7447;DHT22;3765;47.962;7.952;2023-05-29T04:42:05;12.90;61.70
7447;DHT22;3765;47.962;7.952;2023-05-29T04:44:33;13.00;61.60
7447;DHT22;3765;47.962;7.952;2023-05-29T04:47:02;13.10;61.50
7447;DHT22;3765;47.962;7.952;2023-05-29T04:49:30;13.20;61.30
7447;DHT22;3765;47.962;7.952;2023-05-29T04:51:58;13.40;61.10
7447;DHT22;3765;47.962;7.952;2023-05-29T04:54:29;13.50;60.80
7447;DHT22;3765;47.962;7.952;2023-05-29T04:56:57;13.70;60.50
7447;DHT22;3765;47.962;7.952;2023-05-29T04:59:25;13.80;60.40
7447;DHT22;3765;47.962;7.952;2023-05-29T05:01:53;13.90;60.30
7447;DHT22;3765;47.962;7.952;2023-05-29T05:04:22;14.00;60.30
7447;DHT22;3765;47.962;7.952;2023-05-29T05:06:51;14.10;60.30
7447;DHT22;3765;47.962;7.952;2023-05-29T05:09:19;14.10;60.30
7447;DHT22;3765;47.962;7.952;2023-05-29T05:11:48;14.20;60.40
7447;DHT22;3765;47.962;7.952;2023-05-29T05:14:17;14.30;60.30
7447;DHT22;3765;47.962;7.952;2023-05-29T05:16:45;14.40;60.40
7447;DHT22;3765;47.962;7.952;2023-05-29T05:19:13;14.50;60.30
7447;DHT22;3765;47.962;7.952;2023-05-29T05:21:41;14.60;60.20
7447;DHT22;3765;47.962;7.952;2023-05-29T05:24:09;14.70;60.10
7447;DHT22;3765;47.962;7.952;2023-05-29T05:26:38;14.80;60.10
7447;DHT22;3765;47.962;7.952;2023-05-29T05:29:07;14.80;60.00
7447;DHT22;3765;47.962;7.952;2023-05-29T05:31:35;15.10;59.80
7447;DHT22;3765;47.962;7.952;2023-05-29T05:34:03;15.20;59.50
7447;DHT22;3765;47.962;7.952;2023-05-29T05:36:32;15.30;59.20
7447;DHT22;3765;47.962;7.952;2023-05-29T05:39:00;15.50;59.00
7447;DHT22;3765;47.962;7.952;2023-05-29T05:41:28;15.80;58.60
7447;DHT22;3765;47.962;7.952;2023-05-29T05:43:56;15.80;58.50
7447;DHT22;3765;47.962;7.952;2023-05-29T05:46:26;16.00;58.40
7447;DHT22;3765;47.962;7.952;2023-05-29T05:48:54;16.20;58.00
7447;DHT22;3765;47.962;7.952;2023-05-29T05:51:24;16.30;57.80
7447;DHT22;3765;47.962;7.952;2023-05-29T05:53:52;16.40;57.40
7447;DHT22;3765;47.962;7.952;2023-05-29T05:56:20;16.50;57.00
7447;DHT22;3765;47.962;7.952;2023-05-29T05:58:49;16.70;56.70
7447;DHT22;3765;47.962;7.952;2023-05-29T06:01:17;16.80;56.50
7447;DHT22;3765;47.962;7.952;2023-05-29T06:03:47;17.10;56.20
7447;DHT22;3765;47.962;7.952;2023-05-29T06:06:16;17.20;55.90
7447;DHT22;3765;47.962;7.952;2023-05-29T06:08:45;17.40;55.70
7447;DHT22;3765;47.962;7.952;2023-05-29T06:11:14;17.50;55.50
7447;DHT22;3765;47.962;7.952;2023-05-29T06:13:42;17.60;55.30
7447;DHT22;3765;47.962;7.952;2023-05-29T06:16:11;17.70;55.20
7447;DHT22;3765;47.962;7.952;2023-05-29T06:18:39;17.80;55.00
7447;DHT22;3765;47.962;7.952;2023-05-29T06:21:09;18.10;55.00
7447;DHT22;3765;47.962;7.952;2023-05-29T06:23:37;18.20;54.80
7447;DHT22;3765;47.962;7.952;2023-05-29T06:26:05;18.40;54.60
7447;DHT22;3765;47.962;7.952;2023-05-29T06:28:34;18.60;54.30
7447;DHT22;3765;47.962;7.952;2023-05-29T06:31:02;18.80;52.70
7447;DHT22;3765;47.962;7.952;2023-05-29T06:33:30;18.90;52.00
7447;DHT22;3765;47.962;7.952;2023-05-29T06:35:59;19.20;51.70
7447;DHT22;3765;47.962;7.952;2023-05-29T06:38:31;19.40;51.80
7447;DHT22;3765;47.962;7.952;2023-05-29T06:40:59;19.60;52.10
7447;DHT22;3765;47.962;7.952;2023-05-29T06:43:27;19.70;52.30
7447;DHT22;3765;47.962;7.952;2023-05-29T06:45:56;19.60;52.60
7447;DHT22;3765;47.962;7.952;2023-05-29T06:48:24;19.50;53.00
7447;DHT22;3765;47.962;7.952;2023-05-29T06:50:52;19.40;52.70
7447;DHT22;3765;47.962;7.952;2023-05-29T06:53:20;19.50;53.20
7447;DHT22;3765;47.962;7.952;2023-05-29T06:55:50;19.70;52.90
7447;DHT22;3765;47.962;7.952;2023-05-29T06:58:18;19.50;52.80
7447;DHT22;3765;47.962;7.952;2023-05-29T07:00:47;19.60;53.30
7447;DHT22;3765;47.962;7.952;2023-05-29T07:03:15;19.80;53.70
7447;DHT22;3765;47.962;7.952;2023-05-29T07:05:43;19.80;53.70
7447;DHT22;3765;47.962;7.952;2023-05-29T07:08:11;19.90;53.60
7447;DHT22;3765;47.962;7.952;2023-05-29T07:10:42;20.10;53.40
7447;DHT22;3765;47.962;7.952;2023-05-29T07:13:14;20.30;53.10
7447;DHT22;3765;47.962;7.952;2023-05-29T07:15:42;20.30;52.80
7447;DHT22;3765;47.962;7.952;2023-05-29T07:18:10;20.20;52.40
7447;DHT22;3765;47.962;7.952;2023-05-29T07:20:39;20.30;52.60
7447;DHT22;3765;47.962;7.952;2023-05-29T07:23:07;20.30;52.70
7447;DHT22;3765;47.962;7.952;2023-05-29T07:25:36;20.20;52.70
7447;DHT22;3765;47.962;7.952;2023-05-29T07:28:04;20.10;52.90
7447;DHT22;3765;47.962;7.952;2023-05-29T07:30:49;20.20;52.90
7447;DHT22;3765;47.962;7.952;2023-05-29T07:33:17;20.40;52.70
7447;DHT22;3765;47.962;7.952;2023-05-29T07:35:45;20.30;52.00
7447;DHT22;3765;47.962;7.952;2023-05-29T07:38:14;20.40;52.10
7447;DHT22;3765;47.962;7.952;2023-05-29T07:40:42;20.50;52.00
7447;DHT22;3765;47.962;7.952;2023-05-29T07:43:11;20.60;51.80
7447;DHT22;3765;47.962;7.952;2023-05-29T07:45:39;20.50;51.50
7447;DHT22;3765;47.962;7.952;2023-05-29T07:48:11;20.50;51.40
7447;DHT22;3765;47.962;7.952;2023-05-29T07:50:39;20.40;51.50
7447;DHT22;3765;47.962;7.952;2023-05-29T07:53:08;20.60;51.70
7447;DHT22;3765;47.962;7.952;2023-05-29T07:55:36;20.80;51.30
7447;DHT22;3765;47.962;7.952;2023-05-29T07:58:04;21.00;51.00
7447;DHT22;3765;47.962;7.952;2023-05-29T08:00:33;21.10;50.50
7447;DHT22;3765;47.962;7.952;2023-05-29T08:03:01;21.30;49.80
7447;DHT22;3765;47.962;7.952;2023-05-29T08:05:32;21.30;49.80
7447;DHT22;3765;47.962;7.952;2023-05-29T08:08:04;21.50;49.50
7447;DHT22;3765;47.962;7.952;2023-05-29T08:10:34;21.70;49.10
7447;DHT22;3765;47.962;7.952;2023-05-29T08:13:03;22.00;48.70
7447;DHT22;3765;47.962;7.952;2023-05-29T08:15:31;22.20;48.50
7447;DHT22;3765;47.962;7.952;2023-05-29T08:18:01;22.40;48.40
7447;DHT22;3765;47.962;7.952;2023-05-29T08:20:35;22.40;48.00
7447;DHT22;3765;47.962;7.952;2023-05-29T08:23:04;22.30;48.20
7447;DHT22;3765;47.962;7.952;2023-05-29T08:25:34;22.00;48.90
7447;DHT22;3765;47.962;7.952;2023-05-29T08:28:02;21.90;49.10
7447;DHT22;3765;47.962;7.952;2023-05-29T08:30:31;21.80;49.40
7447;DHT22;3765;47.962;7.952;2023-05-29T08:33:03;22.00;49.20
7447;DHT22;3765;47.962;7.952;2023-05-29T08:35:33;22.10;49.00
7447;DHT22;3765;47.962;7.952;2023-05-29T08:38:04;22.10;49.20
7447;DHT22;3765;47.962;7.952;2023-05-29T08:40:40;22.10;49.40
7447;DHT22;3765;47.962;7.952;2023-05-29T08:43:14;22.00;49.60
7447;DHT22;3765;47.962;7.952;2023-05-29T08:45:44;21.90;49.60
7447;DHT22;3765;47.962;7.952;2023-05-29T08:48:16;21.90;49.70
7447;DHT22;3765;47.962;7.952;2023-05-29T08:50:48;22.00;49.30
7447;DHT22;3765;47.962;7.952;2023-05-29T08:53:19;22.00;49.40
7447;DHT22;3765;47.962;7.952;2023-05-29T08:55:47;22.00;49.80
7447;DHT22;3765;47.962;7.952;2023-05-29T08:58:18;22.30;49.50
7447;DHT22;3765;47.962;7.952;2023-05-29T09:00:48;22.40;49.30
7447;DHT22;3765;47.962;7.952;2023-05-29T09:03:17;22.30;49.00
7447;DHT22;3765;47.962;7.952;2023-05-29T09:05:48;22.20;49.00
7447;DHT22;3765;47.962;7.952;2023-05-29T09:08:19;22.20;49.00
7447;DHT22;3765;47.962;7.952;2023-05-29T09:10:48;22.00;49.20
7447;DHT22;3765;47.962;7.952;2023-05-29T09:13:19;22.20;48.60
7447;DHT22;3765;47.962;7.952;2023-05-29T09:15:47;22.50;48.60
7447;DHT22;3765;47.962;7.952;2023-05-29T09:18:16;22.80;48.10
7447;DHT22;3765;47.962;7.952;2023-05-29T09:20:45;22.80;48.30
7447;DHT22;3765;47.962;7.952;2023-05-29T09:23:14;22.90;48.40
7447;DHT22;3765;47.962;7.952;2023-05-29T09:25:43;23.10;48.00
7447;DHT22;3765;47.962;7.952;2023-05-29T09:28:11;23.20;47.80
7447;DHT22;3765;47.962;7.952;2023-05-29T09:30:40;23.30;47.20
7447;DHT22;3765;47.962;7.952;2023-05-29T09:33:10;23.30;47.10
7447;DHT22;3765;47.962;7.952;2023-05-29T09:35:40;23.50;46.60
7447;DHT22;3765;47.962;7.952;2023-05-29T09:38:09;23.50;46.30
7447;DHT22;3765;47.962;7.952;2023-05-29T09:41:03;23.70;45.80
7447;DHT22;3765;47.962;7.952;2023-05-29T09:43:32;24.00;44.40
7447;DHT22;3765;47.962;7.952;2023-05-29T09:46:01;24.20;42.20
7447;DHT22;3765;47.962;7.952;2023-05-29T09:48:30;24.40;40.20
7447;DHT22;3765;47.962;7.952;2023-05-29T09:51:02;24.40;39.50
7447;DHT22;3765;47.962;7.952;2023-05-29T09:53:30;24.60;39.00
7447;DHT22;3765;47.962;7.952;2023-05-29T09:56:00;24.50;37.90
7447;DHT22;3765;47.962;7.952;2023-05-29T09:58:32;24.50;37.40
7447;DHT22;3765;47.962;7.952;2023-05-29T10:01:02;24.50;36.90
7447;DHT22;3765;47.962;7.952;2023-05-29T10:03:30;24.70;36.80
7447;DHT22;3765;47.962;7.952;2023-05-29T10:06:02;25.00;36.60
7447;DHT22;3765;47.962;7.952;2023-05-29T10:08:35;24.80;35.20
7447;DHT22;3765;47.962;7.952;2023-05-29T10:11:07;24.90;35.80
7447;DHT22;3765;47.962;7.952;2023-05-29T10:13:38;25.10;35.80
7447;DHT22;3765;47.962;7.952;2023-05-29T10:16:11;25.20;35.10
7447;DHT22;3765;47.962;7.952;2023-05-29T10:18:43;25.20;35.10
7447;DHT22;3765;47.962;7.952;2023-05-29T10:21:12;25.40;34.90
7447;DHT22;3765;47.962;7.952;2023-05-29T10:23:45;25.60;34.70
7447;DHT22;3765;47.962;7.952;2023-05-29T10:26:19;25.40;34.40
7447;DHT22;3765;47.962;7.952;2023-05-29T10:28:55;25.50;34.30
7447;DHT22;3765;47.962;7.952;2023-05-29T10:31:28;25.60;33.90
7447;DHT22;3765;47.962;7.952;2023-05-29T10:34:07;25.50;34.20
7447;DHT22;3765;47.962;7.952;2023-05-29T10:36:42;25.70;34.20
7447;DHT22;3765;47.962;7.952;2023-05-29T10:39:12;25.60;34.00
7447;DHT22;3765;47.962;7.952;2023-05-29T10:41:44;25.70;33.90
7447;DHT22;3765;47.962;7.952;2023-05-29T10:44:38;25.60;33.60
7447;DHT22;3765;47.962;7.952;2023-05-29T10:47:07;25.50;33.70
7447;DHT22;3765;47.962;7.952;2023-05-29T10:49:49;25.80;33.70
7447;DHT22;3765;47.962;7.952;2023-05-29T10:52:19;25.90;33.20
7447;DHT22;3765;47.962;7.952;2023-05-29T10:54:53;26.00;33.50
7447;DHT22;3765;47.962;7.952;2023-05-29T10:57:24;26.20;33.20
7447;DHT22;3765;47.962;7.952;2023-05-29T11:00:04;26.00;32.80
7447;DHT22;3765;47.962;7.952;2023-05-29T11:02:41;26.10;33.10
7447;DHT22;3765;47.962;7.952;2023-05-29T11:05:20;26.10;33.00
7447;DHT22;3765;47.962;7.952;2023-05-29T11:07:56;26.20;33.30
7447;DHT22;3765;47.962;7.952;2023-05-29T11:10:45;26.30;33.10
7447;DHT22;3765;47.962;7.952;2023-05-29T11:13:25;26.50;33.00
7447;DHT22;3765;47.962;7.952;2023-05-29T11:16:35;26.50;32.80
7447;DHT22;3765;47.962;7.952;2023-05-29T11:19:05;26.50;32.60
7447;DHT22;3765;47.962;7.952;2023-05-29T11:21:38;26.70;32.90
7447;DHT22;3765;47.962;7.952;2023-05-29T11:24:18;26.70;32.70
7447;DHT22;3765;47.962;7.952;2023-05-29T11:26:50;26.80;32.70
7447;DHT22;3765;47.962;7.952;2023-05-29T11:29:23;26.90;32.60
7447;DHT22;3765;47.962;7.952;2023-05-29T11:31:57;26.70;32.30
7447;DHT22;3765;47.962;7.952;2023-05-29T11:34:29;26.80;32.20
7447;DHT22;3765;47.962;7.952;2023-05-29T11:36:58;26.80;32.50
7447;DHT22;3765;47.962;7.952;2023-05-29T11:39:27;26.90;32.30
7447;DHT22;3765;47.962;7.952;2023-05-29T11:41:55;27.20;32.10
7447;DHT22;3765;47.962;7.952;2023-05-29T11:44:25;27.20;31.90
7447;DHT22;3765;47.962;7.952;2023-05-29T11:47:00;27.30;32.00
7447;DHT22;3765;47.962;7.952;2023-05-29T11:49:30;27.10;31.70
7447;DHT22;3765;47.962;7.952;2023-05-29T11:52:07;26.70;31.40
7447;DHT22;3765;47.962;7.952;2023-05-29T11:54:38;27.00;31.70
7447;DHT22;3765;47.962;7.952;2023-05-29T11:57:07;27.20;31.80
7447;DHT22;3765;47.962;7.952;2023-05-29T11:59:37;27.20;31.50
7447;DHT22;3765;47.962;7.952;2023-05-29T12:02:06;26.90;31.40
7447;DHT22;3765;47.962;7.952;2023-05-29T12:04:34;27.30;31.50
7447;DHT22;3765;47.962;7.952;2023-05-29T12:07:16;27.80;31.60
7447;DHT22;3765;47.962;7.952;2023-05-29T12:09:45;27.80;31.40
7447;DHT22;3765;47.962;7.952;2023-05-29T12:12:14;27.50;31.40
7447;DHT22;3765;47.962;7.952;2023-05-29T12:14:44;27.60;31.40
7447;DHT22;3765;47.962;7.952;2023-05-29T12:17:12;27.70;31.80
7447;DHT22;3765;47.962;7.952;2023-05-29T12:19:40;27.80;31.40
7447;DHT22;3765;47.962;7.952;2023-05-29T12:22:08;27.70;31.30
7447;DHT22;3765;47.962;7.952;2023-05-29T12:24:37;27.80;31.30
7447;DHT22;3765;47.962;7.952;2023-05-29T12:27:09;27.80;31.10
7447;DHT22;3765;47.962;7.952;2023-05-29T12:29:37;27.80;31.20
7447;DHT22;3765;47.962;7.952;2023-05-29T12:32:10;28.10;31.50
7447;DHT22;3765;47.962;7.952;2023-05-29T12:34:39;28.30;31.10
7447;DHT22;3765;47.962;7.952;2023-05-29T12:37:09;28.40;31.10
7447;DHT22;3765;47.962;7.952;2023-05-29T12:39:41;28.60;31.00
7447;DHT22;3765;47.962;7.952;2023-05-29T12:42:09;28.50;30.60
7447;DHT22;3765;47.962;7.952;2023-05-29T12:44:37;28.70;30.40
7447;DHT22;3765;47.962;7.952;2023-05-29T12:47:06;28.80;30.30
7447;DHT22;3765;47.962;7.952;2023-05-29T12:49:37;29.00;30.40
7447;DHT22;3765;47.962;7.952;2023-05-29T12:52:06;28.70;30.40
7447;DHT22;3765;47.962;7.952;2023-05-29T12:54:36;28.80;30.60
7447;DHT22;3765;47.962;7.952;2023-05-29T12:57:06;28.70;29.70
7447;DHT22;3765;47.962;7.952;2023-05-29T12:59:34;28.90;30.30
7447;DHT22;3765;47.962;7.952;2023-05-29T13:02:02;28.90;30.10
7447;DHT22;3765;47.962;7.952;2023-05-29T13:04:31;29.20;30.00
7447;DHT22;3765;47.962;7.952;2023-05-29T13:07:00;29.20;29.90
7447;DHT22;3765;47.962;7.952;2023-05-29T13:09:29;29.00;29.90
7447;DHT22;3765;47.962;7.952;2023-05-29T13:11:57;29.20;30.00
7447;DHT22;3765;47.962;7.952;2023-05-29T13:14:25;29.10;29.90
7447;DHT22;3765;47.962;7.952;2023-05-29T13:16:54;28.60;29.80
7447;DHT22;3765;47.962;7.952;2023-05-29T13:19:22;28.80;29.80
7447;DHT22;3765;47.962;7.952;2023-05-29T13:21:50;28.90;29.90
7447;DHT22;3765;47.962;7.952;2023-05-29T13:24:19;28.70;29.60
7447;DHT22;3765;47.962;7.952;2023-05-29T13:26:48;28.60;29.60
7447;DHT22;3765;47.962;7.952;2023-05-29T13:29:17;27.80;29.80
7447;DHT22;3765;47.962;7.952;2023-05-29T13:31:46;27.90;30.10
7447;DHT22;3765;47.962;7.952;2023-05-29T13:34:14;28.20;30.30
7447;DHT22;3765;47.962;7.952;2023-05-29T13:36:44;28.50;29.40
7447;DHT22;3765;47.962;7.952;2023-05-29T13:39:12;28.60;29.70
7447;DHT22;3765;47.962;7.952;2023-05-29T13:41:42;28.90;29.50
7447;DHT22;3765;47.962;7.952;2023-05-29T13:44:10;29.40;29.30
7447;DHT22;3765;47.962;7.952;2023-05-29T13:46:38;30.10;29.20
7447;DHT22;3765;47.962;7.952;2023-05-29T13:49:06;30.20;28.10
7447;DHT22;3765;47.962;7.952;2023-05-29T13:51:35;30.20;28.70
7447;DHT22;3765;47.962;7.952;2023-05-29T13:54:03;30.20;27.80
7447;DHT22;3765;47.962;7.952;2023-05-29T13:56:32;29.60;27.80
7447;DHT22;3765;47.962;7.952;2023-05-29T13:59:01;29.00;28.30
7447;DHT22;3765;47.962;7.952;2023-05-29T14:01:32;29.80;28.20
7447;DHT22;3765;47.962;7.952;2023-05-29T14:04:01;29.90;27.90
7447;DHT22;3765;47.962;7.952;2023-05-29T14:06:30;29.80;27.90
7447;DHT22;3765;47.962;7.952;2023-05-29T14:08:59;30.10;27.90
7447;DHT22;3765;47.962;7.952;2023-05-29T14:11:27;30.50;27.60
7447;DHT22;3765;47.962;7.952;2023-05-29T14:13:55;30.20;27.20
7447;DHT22;3765;47.962;7.952;2023-05-29T14:16:25;30.40;27.30
7447;DHT22;3765;47.962;7.952;2023-05-29T14:18:54;30.30;27.40
7447;DHT22;3765;47.962;7.952;2023-05-29T14:21:22;30.80;27.30
7447;DHT22;3765;47.962;7.952;2023-05-29T14:23:50;30.80;27.30
7447;DHT22;3765;47.962;7.952;2023-05-29T14:26:18;30.80;27.00
7447;DHT22;3765;47.962;7.952;2023-05-29T14:28:47;31.20;27.10
7447;DHT22;3765;47.962;7.952;2023-05-29T14:31:21;31.60;27.20
7447;DHT22;3765;47.962;7.952;2023-05-29T14:33:50;31.50;26.90
7447;DHT22;3765;47.962;7.952;2023-05-29T14:36:19;31.30;27.10
7447;DHT22;3765;47.962;7.952;2023-05-29T14:38:47;31.20;26.70
7447;DHT22;3765;47.962;7.952;2023-05-29T14:41:16;31.20;26.70
7447;DHT22;3765;47.962;7.952;2023-05-29T14:43:44;31.30;26.50
7447;DHT22;3765;47.962;7.952;2023-05-29T14:46:12;31.00;26.80
7447;DHT22;3765;47.962;7.952;2023-05-29T14:48:41;31.40;26.60
7447;DHT22;3765;47.962;7.952;2023-05-29T14:51:10;31.10;26.80
7447;DHT22;3765;47.962;7.952;2023-05-29T14:53:38;31.30;26.80
7447;DHT22;3765;47.962;7.952;2023-05-29T14:56:07;31.80;26.40
7447;DHT22;3765;47.962;7.952;2023-05-29T14:58:35;31.50;26.50
7447;DHT22;3765;47.962;7.952;2023-05-29T15:01:04;31.80;26.50
7447;DHT22;3765;47.962;7.952;2023-05-29T15:03:32;31.60;26.70
7447;DHT22;3765;47.962;7.952;2023-05-29T15:06:02;31.70;26.40
7447;DHT22;3765;47.962;7.952;2023-05-29T15:08:32;31.20;26.60
7447;DHT22;3765;47.962;7.952;2023-05-29T15:11:02;31.00;26.90
7447;DHT22;3765;47.962;7.952;2023-05-29T15:13:30;31.80;26.50
7447;DHT22;3765;47.962;7.952;2023-05-29T15:15:59;32.60;26.30
7447;DHT22;3765;47.962;7.952;2023-05-29T15:18:27;32.70;26.10
7447;DHT22;3765;47.962;7.952;2023-05-29T15:20:55;32.40;25.80
7447;DHT22;3765;47.962;7.952;2023-05-29T15:23:24;32.20;25.80
7447;DHT22;3765;47.962;7.952;2023-05-29T15:25:54;32.10;25.70
7447;DHT22;3765;47.962;7.952;2023-05-29T15:28:23;32.20;25.50
7447;DHT22;3765;47.962;7.952;2023-05-29T15:30:51;32.20;25.50
7447;DHT22;3765;47.962;7.952;2023-05-29T15:33:19;32.60;25.40
7447;DHT22;3765;47.962;7.952;2023-05-29T15:35:47;32.20;25.00
7447;DHT22;3765;47.962;7.952;2023-05-29T15:38:16;32.40;25.10
7447;DHT22;3765;47.962;7.952;2023-05-29T15:40:44;33.20;25.10
7447;DHT22;3765;47.962;7.952;2023-05-29T15:43:14;33.30;24.70
7447;DHT22;3765;47.962;7.952;2023-05-29T15:45:42;32.90;24.20
7447;DHT22;3765;47.962;7.952;2023-05-29T15:48:10;32.90;24.80
7447;DHT22;3765;47.962;7.952;2023-05-29T15:50:39;33.30;24.70
7447;DHT22;3765;47.962;7.952;2023-05-29T15:53:07;33.80;24.60
7447;DHT22;3765;47.962;7.952;2023-05-29T15:55:35;34.20;24.20
7447;DHT22;3765;47.962;7.952;2023-05-29T15:58:03;34.80;24.00
7447;DHT22;3765;47.962;7.952;2023-05-29T16:00:34;34.90;23.90
7447;DHT22;3765;47.962;7.952;2023-05-29T16:03:04;35.30;23.40
7447;DHT22;3765;47.962;7.952;2023-05-29T16:05:34;35.70;22.90
7447;DHT22;3765;47.962;7.952;2023-05-29T16:08:03;36.20;22.80
7447;DHT22;3765;47.962;7.952;2023-05-29T16:10:32;35.90;22.70
7447;DHT22;3765;47.962;7.952;2023-05-29T16:13:00;36.40;22.50
7447;DHT22;3765;47.962;7.952;2023-05-29T16:15:28;35.90;22.20
7447;DHT22;3765;47.962;7.952;2023-05-29T16:17:58;37.40;21.70
7447;DHT22;3765;47.962;7.952;2023-05-29T16:20:26;38.30;20.50